createdAt,value
2023-03-11T00:01:00.918Z,10.29
2023-03-11T00:02:02.562Z,10.29
2023-03-11T00:03:04.872Z,10.32
2023-03-11T00:04:07.089Z,10.29
2023-03-11T00:05:09.321Z,10.28
2023-03-11T00:06:11.056Z,10.32
2023-03-11T00:07:12.696Z,10.33
2023-03-11T00:08:16.739Z,10.32
2023-03-11T00:09:18.348Z,10.29
2023-03-11T00:10:22.299Z,10.38
2023-03-11T00:11:24.185Z,10.45
2023-03-11T00:12:25.790Z,10.45
2023-03-11T00:13:28.138Z,10.43
2023-03-11T00:14:29.755Z,10.46
2023-03-11T00:15:31.748Z,10.45
2023-03-11T00:16:33.427Z,10.48
2023-03-11T00:17:35.019Z,10.50
2023-03-11T00:18:36.670Z,10.50
2023-03-11T00:19:38.280Z,10.52
2023-03-11T00:20:40.878Z,10.55
2023-03-11T00:21:42.480Z,10.50
2023-03-11T00:22:44.076Z,10.52
2023-03-11T00:23:46.322Z,10.49
2023-03-11T00:24:47.954Z,10.45
2023-03-11T00:25:49.583Z,10.43
2023-03-11T00:26:51.168Z,10.45
2023-03-11T00:27:52.763Z,10.42
2023-03-11T00:28:55.600Z,10.42
2023-03-11T00:29:57.228Z,10.40
2023-03-11T00:30:58.831Z,10.42
2023-03-11T00:32:00.446Z,10.45
2023-03-11T00:33:02.243Z,10.49
2023-03-11T00:34:03.922Z,10.52
2023-03-11T00:35:06.088Z,10.50
2023-03-11T00:36:08.168Z,10.43
2023-03-11T00:37:09.861Z,10.39
2023-03-11T00:38:15.159Z,10.32
2023-03-11T00:39:16.837Z,10.32
2023-03-11T00:40:19.230Z,10.28
2023-03-11T00:41:21.026Z,10.33
2023-03-11T00:42:22.812Z,10.30
2023-03-11T00:43:24.456Z,10.33
2023-03-11T00:44:26.134Z,10.36
2023-03-11T00:45:28.002Z,10.38
2023-03-11T00:46:31.197Z,10.35
2023-03-11T00:47:32.959Z,10.35
2023-03-11T00:48:34.629Z,10.29
2023-03-11T00:49:36.770Z,10.29
2023-03-11T00:50:38.557Z,10.29
2023-03-11T00:51:40.151Z,10.23
2023-03-11T00:52:41.738Z,10.20
2023-03-11T00:53:43.784Z,10.13
2023-03-11T00:54:46.267Z,10.15
2023-03-11T00:55:47.948Z,10.13
2023-03-11T00:56:49.551Z,10.12
2023-03-11T00:57:55.155Z,10.13
2023-03-11T00:58:56.730Z,10.13
2023-03-11T00:59:59.677Z,10.19
2023-03-11T01:01:08.648Z,10.15
2023-03-11T01:02:10.412Z,10.15
2023-03-11T01:03:12.082Z,10.18
2023-03-11T01:04:13.747Z,10.16
2023-03-11T01:05:22.177Z,10.13
2023-03-11T01:06:26.158Z,10.10
2023-03-11T01:07:29.603Z,10.10
2023-03-11T01:08:31.789Z,10.06
2023-03-11T01:09:33.389Z,10.09
2023-03-11T01:10:35.191Z,10.08
2023-03-11T01:11:36.787Z,10.06
2023-03-11T01:12:38.424Z,10.02
2023-03-11T01:13:40.385Z,10.01
2023-03-11T01:14:42.048Z,10.02
2023-03-11T01:15:43.675Z,10.08
2023-03-11T01:16:46.437Z,10.09
2023-03-11T01:17:48.031Z,10.08
2023-03-11T01:18:49.773Z,10.08
2023-03-11T01:19:51.365Z,10.10
2023-03-11T01:20:52.971Z,10.06
2023-03-11T01:21:54.642Z,10.08
2023-03-11T01:22:56.322Z,10.05
2023-03-11T01:23:57.992Z,10.02
2023-03-11T01:24:59.577Z,10.01
2023-03-11T01:26:01.182Z,10.02
2023-03-11T01:27:02.829Z,9.99
2023-03-11T01:28:04.733Z,9.98
2023-03-11T01:29:06.315Z,9.98
2023-03-11T01:30:08.882Z,9.91
2023-03-11T01:31:12.045Z,9.94
2023-03-11T01:32:13.798Z,9.89
2023-03-11T01:33:19.336Z,9.91
2023-03-11T01:34:20.937Z,9.94
2023-03-11T01:35:23.689Z,9.88
2023-03-11T01:36:25.437Z,9.91
2023-03-11T01:37:27.104Z,9.88
2023-03-11T01:38:28.818Z,9.88
2023-03-11T01:39:30.465Z,9.88
2023-03-11T01:40:33.945Z,9.91
2023-03-11T01:41:35.588Z,9.92
2023-03-11T01:42:37.239Z,9.94
2023-03-11T01:43:41.967Z,9.95
2023-03-11T01:44:43.561Z,9.94
2023-03-11T01:45:50.776Z,9.88
2023-03-11T01:46:52.443Z,9.88
2023-03-11T01:47:54.075Z,9.84
2023-03-11T01:48:57.623Z,9.82
2023-03-11T01:49:59.286Z,9.84
2023-03-11T01:51:00.921Z,9.78
2023-03-11T01:52:07.763Z,9.84
2023-03-11T01:53:09.474Z,9.85
2023-03-11T01:54:19.161Z,9.82
2023-03-11T01:55:20.834Z,9.81
2023-03-11T01:56:23.205Z,9.85
2023-03-11T01:57:24.844Z,9.85
2023-03-11T01:58:28.388Z,9.84
2023-03-11T01:59:32.312Z,9.88
2023-03-11T02:00:34.836Z,9.85
2023-03-11T02:01:38.112Z,9.84
2023-03-11T02:02:46.265Z,9.88
2023-03-11T02:03:48.176Z,9.89
2023-03-11T02:04:49.929Z,9.88
2023-03-11T02:05:51.726Z,9.89
2023-03-11T02:06:54.191Z,9.88
2023-03-11T02:07:55.845Z,9.87
2023-03-11T02:08:57.436Z,9.85
2023-03-11T02:09:59.135Z,9.88
2023-03-11T02:11:01.110Z,9.92
2023-03-11T02:12:03.491Z,9.88
2023-03-11T02:13:05.104Z,9.92
2023-03-11T02:14:06.924Z,9.94
2023-03-11T02:15:09.350Z,9.97
2023-03-11T02:16:11.016Z,9.92
2023-03-11T02:17:12.955Z,9.92
2023-03-11T02:18:20.242Z,9.88
2023-03-11T02:19:32.470Z,9.91
2023-03-11T02:21:10.251Z,9.85
2023-03-11T02:22:12.009Z,9.78
2023-03-11T02:23:14.295Z,9.75
2023-03-11T02:24:35.187Z,9.78
2023-03-11T02:25:51.215Z,9.88
2023-03-11T02:27:09.441Z,9.85
2023-03-11T02:28:12.726Z,9.87
2023-03-11T02:29:14.384Z,9.84
2023-03-11T02:30:16.299Z,9.85
2023-03-11T02:31:18.029Z,9.84
2023-03-11T02:32:19.812Z,9.87
2023-03-11T02:33:21.484Z,9.79
2023-03-11T02:34:28.763Z,9.78
2023-03-11T02:35:31.622Z,9.81
2023-03-11T02:36:38.385Z,9.78
2023-03-11T02:37:47.122Z,9.75
2023-03-11T02:38:48.764Z,9.78
2023-03-11T02:39:53.155Z,9.85
2023-03-11T02:41:01.256Z,9.87
2023-03-11T02:42:24.495Z,9.91
2023-03-11T02:43:38.912Z,9.91
2023-03-11T02:44:41.552Z,9.94
2023-03-11T02:45:44.255Z,9.97
2023-03-11T02:46:45.923Z,9.95
2023-03-11T02:47:47.557Z,10.01
2023-03-11T02:48:49.162Z,10.03
2023-03-11T02:49:50.873Z,10.05
2023-03-11T02:50:52.565Z,10.03
2023-03-11T02:51:54.150Z,10.02
2023-03-11T02:52:55.757Z,10.01
2023-03-11T02:53:58.491Z,10.02
2023-03-11T02:55:00.158Z,10.03
2023-03-11T02:56:01.789Z,10.03
2023-03-11T02:57:03.467Z,10.08
2023-03-11T02:58:05.139Z,10.06
2023-03-11T02:59:06.817Z,10.09
2023-03-11T03:00:14.097Z,10.05
2023-03-11T03:01:15.722Z,10.03
2023-03-11T03:02:17.441Z,10.01
2023-03-11T03:03:19.075Z,10.02
2023-03-11T03:04:20.671Z,9.99
2023-03-11T03:05:22.405Z,10.02
2023-03-11T03:06:25.121Z,10.02
2023-03-11T03:07:26.769Z,10.02
2023-03-11T03:08:28.666Z,9.99
2023-03-11T03:09:30.273Z,9.98
2023-03-11T03:10:31.897Z,9.99
2023-03-11T03:11:33.502Z,9.95
2023-03-11T03:12:35.100Z,9.97
2023-03-11T03:13:36.779Z,9.92
2023-03-11T03:14:38.378Z,9.91
2023-03-11T03:15:39.976Z,9.88
2023-03-11T03:16:41.694Z,9.88
2023-03-11T03:17:43.646Z,9.87
2023-03-11T03:18:46.090Z,9.87
2023-03-11T03:19:47.659Z,9.82
2023-03-11T03:20:49.247Z,9.81
2023-03-11T03:21:51.743Z,9.77
2023-03-11T03:22:53.498Z,9.79
2023-03-11T03:23:55.493Z,9.75
2023-03-11T03:24:57.098Z,9.78
2023-03-11T03:25:58.677Z,9.71
2023-03-11T03:27:00.271Z,9.73
2023-03-11T03:28:01.868Z,9.70
2023-03-11T03:29:04.862Z,9.67
2023-03-11T03:30:07.073Z,9.67
2023-03-11T03:31:09.656Z,9.64
2023-03-11T03:32:11.337Z,9.64
2023-03-11T03:33:12.999Z,9.62
2023-03-11T03:34:14.615Z,9.67
2023-03-11T03:35:16.300Z,9.67
2023-03-11T03:36:18.017Z,9.64
2023-03-11T03:37:19.606Z,9.62
2023-03-11T03:38:21.332Z,9.59
2023-03-11T03:39:23.665Z,9.59
2023-03-11T03:40:25.323Z,9.57
2023-03-11T03:41:26.968Z,9.51
2023-03-11T03:42:28.641Z,9.52
2023-03-11T03:43:31.179Z,9.46
2023-03-11T03:44:33.733Z,9.48
2023-03-11T03:45:35.352Z,9.44
2023-03-11T03:46:38.585Z,9.40
2023-03-11T03:47:40.243Z,9.38
2023-03-11T03:48:42.046Z,9.38
2023-03-11T03:49:43.686Z,9.34
2023-03-11T03:50:45.280Z,9.31
2023-03-11T03:51:46.865Z,9.26
2023-03-11T03:52:48.543Z,9.24
2023-03-11T03:53:50.131Z,9.20
2023-03-11T03:54:51.827Z,9.14
2023-03-11T03:55:54.695Z,9.14
2023-03-11T03:56:56.599Z,9.14
2023-03-11T03:57:58.249Z,9.10
2023-03-11T03:58:59.857Z,9.10
2023-03-11T04:00:01.498Z,9.14
2023-03-11T04:01:04.529Z,9.16
2023-03-11T04:02:06.239Z,9.14
2023-03-11T04:03:07.937Z,9.10
2023-03-11T04:04:09.651Z,9.05
2023-03-11T04:05:11.288Z,9.03
2023-03-11T04:06:20.824Z,8.99
2023-03-11T04:07:22.437Z,8.96
2023-03-11T04:08:24.158Z,8.96
2023-03-11T04:09:25.754Z,8.96
2023-03-11T04:10:27.493Z,8.90
2023-03-11T04:11:29.149Z,8.86
2023-03-11T04:12:30.733Z,8.80
2023-03-11T04:13:32.520Z,8.80
2023-03-11T04:14:34.173Z,8.75
2023-03-11T04:15:38.353Z,8.76
2023-03-11T04:16:40.014Z,8.72
2023-03-11T04:17:41.742Z,8.71
2023-03-11T04:18:43.347Z,8.65
2023-03-11T04:19:45.021Z,8.59
2023-03-11T04:20:46.626Z,8.55
2023-03-11T04:21:48.348Z,8.52
2023-03-11T04:22:49.945Z,8.46
2023-03-11T04:23:51.607Z,8.41
2023-03-11T04:24:53.185Z,8.37
2023-03-11T04:25:54.794Z,8.38
2023-03-11T04:26:56.390Z,8.27
2023-03-11T04:27:57.995Z,8.28
2023-03-11T04:28:59.661Z,8.28
2023-03-11T04:30:01.279Z,8.25
2023-03-11T04:31:03.036Z,8.18
2023-03-11T04:32:05.009Z,8.20
2023-03-11T04:33:06.609Z,8.17
2023-03-11T04:34:08.323Z,8.18
2023-03-11T04:35:09.984Z,8.22
2023-03-11T04:36:11.819Z,8.20
2023-03-11T04:37:13.415Z,8.18
2023-03-11T04:38:15.036Z,8.18
2023-03-11T04:39:16.716Z,8.18
2023-03-11T04:40:18.446Z,8.20
2023-03-11T04:41:20.080Z,8.20
2023-03-11T04:42:21.745Z,8.14
2023-03-11T04:43:23.410Z,8.15
2023-03-11T04:44:25.135Z,8.14
2023-03-11T04:45:26.729Z,8.15
2023-03-11T04:46:28.404Z,8.10
2023-03-11T04:47:30.007Z,8.11
2023-03-11T04:48:31.615Z,8.12
2023-03-11T04:49:33.254Z,8.04
2023-03-11T04:50:34.954Z,8.04
2023-03-11T04:51:36.569Z,8.01
2023-03-11T04:52:38.146Z,8.00
2023-03-11T04:53:39.733Z,7.97
2023-03-11T04:54:41.418Z,7.97
2023-03-11T04:55:43.197Z,7.90
2023-03-11T04:56:44.780Z,7.86
2023-03-11T04:57:46.399Z,7.81
2023-03-11T04:58:48.011Z,7.77
2023-03-11T04:59:50.669Z,7.69
2023-03-11T05:00:52.485Z,7.62
2023-03-11T05:01:54.329Z,7.59
2023-03-11T05:02:55.971Z,7.55
2023-03-11T05:03:57.595Z,7.43
2023-03-11T05:04:59.595Z,7.42
2023-03-11T05:06:01.310Z,7.38
2023-03-11T05:07:03.307Z,7.35
2023-03-11T05:08:05.793Z,7.30
2023-03-11T05:09:07.373Z,7.29
2023-03-11T05:10:09.710Z,7.22
2023-03-11T05:11:11.385Z,7.26
2023-03-11T05:12:13.055Z,7.19
2023-03-11T05:13:14.830Z,7.22
2023-03-11T05:14:16.442Z,7.14
2023-03-11T05:15:18.560Z,7.16
2023-03-11T05:16:20.245Z,7.14
2023-03-11T05:17:22.117Z,7.12
2023-03-11T05:18:23.719Z,7.11
2023-03-11T05:19:31.288Z,7.09
2023-03-11T05:20:32.902Z,7.07
2023-03-11T05:21:34.509Z,6.99
2023-03-11T05:22:36.551Z,6.99
2023-03-11T05:23:38.220Z,6.97
2023-03-11T05:24:39.873Z,6.95
2023-03-11T05:25:41.523Z,6.89
2023-03-11T05:26:43.120Z,6.92
2023-03-11T05:27:44.733Z,6.92
2023-03-11T05:28:46.436Z,6.89
2023-03-11T05:29:48.140Z,6.89
2023-03-11T05:30:50.649Z,6.84
2023-03-11T05:31:52.431Z,6.84
2023-03-11T05:32:54.579Z,6.81
2023-03-11T05:33:56.200Z,6.81
2023-03-11T05:34:57.782Z,6.80
2023-03-11T05:36:07.501Z,6.77
2023-03-11T05:37:09.095Z,6.75
2023-03-11T05:38:10.709Z,6.80
2023-03-11T05:39:12.306Z,6.77
2023-03-11T05:40:14.105Z,6.74
2023-03-11T05:41:15.781Z,6.70
2023-03-11T05:42:17.689Z,6.68
2023-03-11T05:43:20.004Z,6.70
2023-03-11T05:44:21.605Z,6.71
2023-03-11T05:45:23.200Z,6.64
2023-03-11T05:46:25.062Z,6.57
2023-03-11T05:47:26.690Z,6.57
2023-03-11T05:48:28.293Z,6.54
2023-03-11T05:49:29.901Z,6.57
2023-03-11T05:50:31.659Z,6.57
2023-03-11T05:51:33.288Z,6.56
2023-03-11T05:52:34.932Z,6.54
2023-03-11T05:53:36.636Z,6.50
2023-03-11T05:54:38.299Z,6.48
2023-03-11T05:55:39.910Z,6.47
2023-03-11T05:56:42.382Z,6.47
2023-03-11T05:57:44.021Z,6.47
2023-03-11T05:58:46.115Z,6.46
2023-03-11T05:59:47.804Z,6.40
2023-03-11T06:00:49.416Z,6.41
2023-03-11T06:01:51.195Z,6.36
2023-03-11T06:02:52.798Z,6.37
2023-03-11T06:03:54.433Z,6.36
2023-03-11T06:04:56.296Z,6.37
2023-03-11T06:05:57.984Z,6.32
2023-03-11T06:06:59.642Z,6.29
2023-03-11T06:08:01.257Z,6.29
2023-03-11T06:09:04.133Z,6.27
2023-03-11T06:10:06.285Z,6.27
2023-03-11T06:11:09.238Z,6.26
2023-03-11T06:12:10.928Z,6.26
2023-03-11T06:13:12.539Z,6.24
2023-03-11T06:14:14.517Z,6.26
2023-03-11T06:15:16.214Z,6.26
2023-03-11T06:16:17.875Z,6.24
2023-03-11T06:17:19.588Z,6.29
2023-03-11T06:18:21.223Z,6.33
2023-03-11T06:19:22.818Z,6.29
2023-03-11T06:20:24.504Z,6.27
2023-03-11T06:21:26.807Z,6.16
2023-03-11T06:22:28.412Z,6.22
2023-03-11T06:23:30.235Z,6.17
2023-03-11T06:24:31.962Z,6.14
2023-03-11T06:25:33.727Z,6.16
2023-03-11T06:26:35.364Z,6.09
2023-03-11T06:27:36.972Z,6.07
2023-03-11T06:28:38.792Z,6.06
2023-03-11T06:29:40.420Z,6.10
2023-03-11T06:30:42.058Z,6.12
2023-03-11T06:31:43.804Z,6.07
2023-03-11T06:32:48.861Z,6.09
2023-03-11T06:33:50.523Z,6.06
2023-03-11T06:34:52.608Z,6.07
2023-03-11T06:36:01.173Z,6.07
2023-03-11T06:37:02.803Z,6.13
2023-03-11T06:38:04.384Z,6.09
2023-03-11T06:39:06.099Z,6.07
2023-03-11T06:40:08.755Z,6.13
2023-03-11T06:41:10.355Z,6.09
2023-03-11T06:42:12.058Z,6.13
2023-03-11T06:43:13.774Z,6.19
2023-03-11T06:44:15.463Z,6.22
2023-03-11T06:45:18.971Z,6.17
2023-03-11T06:46:23.177Z,6.20
2023-03-11T06:47:24.791Z,6.19
2023-03-11T06:48:26.543Z,6.17
2023-03-11T06:49:28.157Z,6.22
2023-03-11T06:50:29.783Z,6.27
2023-03-11T06:51:31.424Z,6.26
2023-03-11T06:52:33.237Z,6.23
2023-03-11T06:53:34.929Z,6.13
2023-03-11T06:54:36.660Z,6.17
2023-03-11T06:55:38.298Z,6.26
2023-03-11T06:56:39.939Z,6.36
2023-03-11T06:57:41.561Z,6.33
2023-03-11T06:58:43.165Z,6.30
2023-03-11T06:59:44.995Z,6.37
2023-03-11T07:00:46.665Z,6.46
2023-03-11T07:01:48.364Z,6.51
2023-03-11T07:02:49.967Z,6.44
2023-03-11T07:03:51.763Z,6.40
2023-03-11T07:04:53.465Z,6.48
2023-03-11T07:05:55.123Z,6.48
2023-03-11T07:06:57.022Z,6.40
2023-03-11T07:07:58.645Z,6.41
2023-03-11T07:09:00.249Z,6.38
2023-03-11T07:10:02.015Z,6.33
2023-03-11T07:11:12.548Z,6.29
2023-03-11T07:12:14.988Z,6.22
2023-03-11T07:13:16.619Z,6.17
2023-03-11T07:14:19.088Z,6.06
2023-03-11T07:15:20.696Z,6.09
2023-03-11T07:16:24.106Z,5.96
2023-03-11T07:17:25.849Z,5.95
2023-03-11T07:18:27.440Z,5.86
2023-03-11T07:19:29.038Z,5.76
2023-03-11T07:20:30.652Z,5.73
2023-03-11T07:21:32.763Z,5.79
2023-03-11T07:22:34.415Z,5.82
2023-03-11T07:23:36.087Z,5.85
2023-03-11T07:24:37.702Z,5.83
2023-03-11T07:25:39.306Z,5.79
2023-03-11T07:26:44.344Z,5.78
2023-03-11T07:27:46.333Z,5.89
2023-03-11T07:28:49.439Z,6.03
2023-03-11T07:29:51.090Z,6.06
2023-03-11T07:30:52.779Z,6.16
2023-03-11T07:31:54.422Z,6.19
2023-03-11T07:32:56.129Z,6.27
2023-03-11T07:33:58.904Z,6.19
2023-03-11T07:35:00.513Z,6.26
2023-03-11T07:36:08.648Z,6.29
2023-03-11T07:37:10.292Z,6.27
2023-03-11T07:38:12.340Z,6.26
2023-03-11T07:39:16.652Z,6.16
2023-03-11T07:40:18.690Z,6.09
2023-03-11T07:41:20.558Z,6.06
2023-03-11T07:42:22.156Z,6.07
2023-03-11T07:43:23.887Z,6.01
2023-03-11T07:44:25.500Z,5.96
2023-03-11T07:45:27.101Z,5.91
2023-03-11T07:46:29.053Z,5.86
2023-03-11T07:47:30.680Z,5.86
2023-03-11T07:48:32.541Z,5.81
2023-03-11T07:49:34.210Z,5.83
2023-03-11T07:50:35.820Z,5.86
2023-03-11T07:51:38.249Z,5.83
2023-03-11T07:52:39.873Z,5.86
2023-03-11T07:53:41.710Z,5.82
2023-03-11T07:54:45.256Z,5.86
2023-03-11T07:55:46.878Z,5.91
2023-03-11T07:56:48.477Z,5.92
2023-03-11T07:57:51.699Z,5.98
2023-03-11T07:58:53.400Z,6.01
2023-03-11T07:59:55.246Z,5.99
2023-03-11T08:00:57.124Z,6.05
2023-03-11T08:01:58.735Z,6.07
2023-03-11T08:03:00.336Z,6.22
2023-03-11T08:04:03.743Z,6.34
2023-03-11T08:05:06.069Z,6.47
2023-03-11T08:06:21.376Z,6.60
2023-03-11T08:07:23.149Z,6.53
2023-03-11T08:08:24.856Z,6.53
2023-03-11T08:09:26.513Z,6.54
2023-03-11T08:10:28.124Z,6.60
2023-03-11T08:11:30.583Z,6.65
2023-03-11T08:12:32.249Z,6.75
2023-03-11T08:13:34.075Z,6.77
2023-03-11T08:14:35.717Z,6.63
2023-03-11T08:15:38.102Z,6.68
2023-03-11T08:16:40.372Z,6.75
2023-03-11T08:17:42.011Z,6.84
2023-03-11T08:18:43.854Z,6.80
2023-03-11T08:19:45.650Z,6.80
2023-03-11T08:20:47.311Z,6.85
2023-03-11T08:21:49.002Z,6.87
2023-03-11T08:22:58.040Z,6.89
2023-03-11T08:24:02.238Z,6.85
2023-03-11T08:25:04.243Z,6.89
2023-03-11T08:26:11.839Z,6.91
2023-03-11T08:27:13.518Z,6.92
2023-03-11T08:28:15.113Z,6.91
2023-03-11T08:29:16.715Z,6.85
2023-03-11T08:30:18.697Z,6.95
2023-03-11T08:31:25.374Z,7.08
2023-03-11T08:32:27.148Z,7.04
2023-03-11T08:33:28.883Z,6.97
2023-03-11T08:34:30.684Z,7.01
2023-03-11T08:35:32.447Z,7.04
2023-03-11T08:36:34.464Z,7.07
2023-03-11T08:37:36.098Z,6.98
2023-03-11T08:38:37.833Z,6.99
2023-03-11T08:39:39.518Z,6.98
2023-03-11T08:40:41.196Z,6.98
2023-03-11T08:41:42.912Z,7.05
2023-03-11T08:42:44.562Z,7.11
2023-03-11T08:43:46.284Z,7.19
2023-03-11T08:44:48.065Z,7.25
2023-03-11T08:45:50.193Z,7.25
2023-03-11T08:46:52.062Z,7.23
2023-03-11T08:47:53.710Z,7.16
2023-03-11T08:48:55.595Z,7.33
2023-03-11T08:49:57.202Z,7.32
2023-03-11T08:50:58.874Z,7.35
2023-03-11T08:52:01.576Z,7.36
2023-03-11T08:53:03.351Z,7.28
2023-03-11T08:54:05.363Z,7.38
2023-03-11T08:55:09.008Z,7.43
2023-03-11T08:56:10.669Z,7.52
2023-03-11T08:57:12.328Z,7.38
2023-03-11T08:58:13.931Z,7.45
2023-03-11T08:59:15.774Z,7.55
2023-03-11T09:00:17.963Z,7.62
2023-03-11T09:01:20.350Z,7.66
2023-03-11T09:02:22.121Z,7.60
2023-03-11T09:03:23.772Z,7.53
2023-03-11T09:04:25.435Z,7.50
2023-03-11T09:05:27.050Z,7.50
2023-03-11T09:06:30.467Z,7.58
2023-03-11T09:07:32.254Z,7.53
2023-03-11T09:08:33.938Z,7.56
2023-03-11T09:09:35.626Z,7.52
2023-03-11T09:10:37.227Z,7.65
2023-03-11T09:11:38.960Z,7.65
2023-03-11T09:12:40.734Z,7.60
2023-03-11T09:13:42.683Z,7.62
2023-03-11T09:14:44.388Z,7.53
2023-03-11T09:15:46.174Z,7.32
2023-03-11T09:16:47.766Z,7.18
2023-03-11T09:17:49.459Z,7.09
2023-03-11T09:18:51.084Z,7.08
2023-03-11T09:19:52.695Z,7.15
2023-03-11T09:20:58.329Z,7.18
2023-03-11T09:22:01.156Z,7.23
2023-03-11T09:23:02.827Z,7.26
2023-03-11T09:24:04.990Z,7.08
2023-03-11T09:25:07.247Z,7.14
2023-03-11T09:26:08.846Z,7.01
2023-03-11T09:27:11.099Z,6.97
2023-03-11T09:28:12.830Z,6.97
2023-03-11T09:29:14.509Z,6.95
2023-03-11T09:30:16.478Z,6.92
2023-03-11T09:31:18.300Z,6.92
2023-03-11T09:32:20.020Z,6.91
2023-03-11T09:33:21.743Z,6.84
2023-03-11T09:34:23.400Z,6.68
2023-03-11T09:35:25.056Z,6.75
2023-03-11T09:36:26.660Z,6.73
2023-03-11T09:37:30.255Z,6.68
2023-03-11T09:38:31.933Z,6.67
2023-03-11T09:39:33.580Z,6.71
2023-03-11T09:40:49.743Z,6.73
2023-03-11T09:41:59.357Z,6.77
2023-03-11T09:43:09.009Z,6.77
2023-03-11T09:44:22.709Z,6.85
2023-03-11T09:45:28.322Z,6.92
2023-03-11T09:46:48.347Z,6.95
2023-03-11T09:48:05.994Z,6.99
2023-03-11T09:49:25.530Z,7.11
2023-03-11T09:50:53.612Z,7.14
2023-03-11T09:52:15.204Z,7.09
2023-03-11T09:53:23.000Z,7.04
2023-03-11T09:54:24.807Z,7.02
2023-03-11T09:55:46.351Z,7.05
2023-03-11T09:56:48.007Z,7.02
2023-03-11T09:57:49.669Z,7.07
2023-03-11T09:58:52.881Z,6.99
2023-03-11T09:59:54.975Z,6.99
2023-03-11T10:00:56.574Z,7.01
2023-03-11T10:01:58.225Z,7.05
2023-03-11T10:03:00.541Z,7.02
2023-03-11T10:04:17.169Z,6.97
2023-03-11T10:05:26.831Z,6.97
2023-03-11T10:06:31.251Z,6.92
2023-03-11T10:07:45.753Z,6.88
2023-03-11T10:08:49.055Z,6.84
2023-03-11T10:09:52.172Z,6.87
2023-03-11T10:11:03.753Z,6.87
2023-03-11T10:12:17.197Z,6.87
2023-03-11T10:13:30.502Z,6.88
2023-03-11T10:14:50.669Z,6.94
2023-03-11T10:16:14.994Z,6.97
2023-03-11T10:17:33.364Z,6.98
2023-03-11T10:18:34.935Z,6.85
2023-03-11T10:19:51.205Z,6.87
2023-03-11T10:20:55.358Z,6.83
2023-03-11T10:22:20.083Z,6.85
2023-03-11T10:23:27.342Z,6.80
2023-03-11T10:24:45.749Z,6.84
2023-03-11T10:25:53.987Z,6.84
2023-03-11T10:26:58.381Z,6.88
2023-03-11T10:28:08.578Z,6.84
2023-03-11T10:29:23.801Z,6.67
2023-03-11T10:30:56.022Z,6.67
2023-03-11T10:32:10.658Z,6.71
2023-03-11T10:33:20.655Z,6.77
2023-03-11T10:34:24.499Z,6.77
2023-03-11T10:35:42.760Z,6.87
2023-03-11T10:37:09.712Z,6.92
2023-03-11T10:38:25.730Z,7.01
2023-03-11T10:39:27.631Z,7.14
2023-03-11T10:40:33.705Z,7.23
2023-03-11T10:42:04.178Z,7.28
2023-03-11T10:43:14.887Z,7.43
2023-03-11T10:44:35.882Z,7.62
2023-03-11T10:45:38.915Z,7.65
2023-03-11T10:46:40.565Z,7.74
2023-03-11T10:47:42.366Z,7.65
2023-03-11T10:48:44.056Z,7.80
2023-03-11T10:49:45.957Z,7.80
2023-03-11T10:50:51.275Z,7.79
2023-03-11T10:51:53.521Z,7.83
2023-03-11T10:53:24.631Z,7.89
2023-03-11T10:54:41.148Z,7.98
2023-03-11T10:55:56.208Z,8.01
2023-03-11T10:57:02.624Z,8.11
2023-03-11T10:58:11.101Z,8.01
2023-03-11T10:59:29.730Z,7.97
2023-03-11T11:00:31.993Z,8.04
2023-03-11T11:01:33.670Z,7.98
2023-03-11T11:02:51.715Z,8.12
2023-03-11T11:03:55.950Z,8.15
2023-03-11T11:05:03.630Z,8.02
2023-03-11T11:06:06.669Z,8.01
2023-03-11T11:07:29.801Z,7.98
2023-03-11T11:08:31.589Z,7.93
2023-03-11T11:09:33.234Z,7.84
2023-03-11T11:10:35.929Z,7.95
2023-03-11T11:11:39.613Z,8.02
2023-03-11T11:13:13.589Z,8.07
2023-03-11T11:14:15.216Z,8.08
2023-03-11T11:15:50.713Z,8.04
2023-03-11T11:16:52.373Z,7.93
2023-03-11T11:17:57.603Z,7.87
2023-03-11T11:19:03.589Z,7.89
2023-03-11T11:20:13.184Z,7.97
2023-03-11T11:21:15.316Z,8.02
2023-03-11T11:22:19.196Z,8.04
2023-03-11T11:23:28.910Z,8.04
2023-03-11T11:24:30.689Z,8.20
2023-03-11T11:25:37.081Z,8.18
2023-03-11T11:26:38.695Z,8.07
2023-03-11T11:27:41.099Z,8.11
2023-03-11T11:28:42.776Z,8.14
2023-03-11T11:29:44.605Z,7.98
2023-03-11T11:30:55.685Z,8.07
2023-03-11T11:32:19.063Z,8.21
2023-03-11T11:33:38.917Z,8.37
2023-03-11T11:34:40.663Z,8.40
2023-03-11T11:35:52.743Z,8.40
2023-03-11T11:36:54.504Z,8.44
2023-03-11T11:38:00.416Z,8.44
2023-03-11T11:39:05.250Z,8.28
2023-03-11T11:40:16.712Z,8.37
2023-03-11T11:41:18.996Z,8.34
2023-03-11T11:42:20.790Z,8.37
2023-03-11T11:43:32.872Z,8.22
2023-03-11T11:44:34.748Z,8.28
2023-03-11T11:45:55.659Z,8.34
2023-03-11T11:46:58.897Z,8.34
2023-03-11T11:48:04.003Z,8.32
2023-03-11T11:49:11.711Z,8.48
2023-03-11T11:50:20.879Z,8.44
2023-03-11T11:51:32.222Z,8.48
2023-03-11T11:52:40.214Z,8.52
2023-03-11T11:53:55.400Z,8.59
2023-03-11T11:55:17.665Z,8.58
2023-03-11T11:56:19.298Z,8.59
2023-03-11T11:57:21.845Z,8.35
2023-03-11T11:58:23.487Z,8.21
2023-03-11T11:59:25.343Z,8.20
2023-03-11T12:00:45.179Z,7.93
2023-03-11T12:02:00.354Z,7.73
2023-03-11T12:03:28.316Z,7.70
2023-03-11T12:04:45.669Z,7.52
2023-03-11T12:05:58.429Z,7.55
2023-03-11T12:07:18.742Z,7.55
2023-03-11T12:08:45.746Z,7.49
2023-03-11T12:10:00.794Z,7.56
2023-03-11T12:11:07.713Z,7.62
2023-03-11T12:12:19.228Z,7.65
2023-03-11T12:14:02.214Z,7.67
2023-03-11T12:15:38.049Z,7.62
2023-03-11T12:16:46.402Z,7.59
2023-03-11T12:17:48.788Z,7.66
2023-03-11T12:19:10.421Z,7.62
2023-03-11T12:20:16.410Z,7.74
2023-03-11T12:21:21.745Z,7.77
2023-03-11T12:22:32.353Z,7.90
2023-03-11T12:23:49.841Z,7.83
2023-03-11T12:24:57.066Z,7.77
2023-03-11T12:26:07.748Z,7.76
2023-03-11T12:27:18.900Z,7.81
2023-03-11T12:28:24.911Z,7.84
2023-03-11T12:29:37.139Z,7.73
2023-03-11T12:30:46.671Z,7.70
2023-03-11T12:31:48.291Z,7.69
2023-03-11T12:32:56.482Z,7.73
2023-03-11T12:34:03.280Z,7.77
2023-03-11T12:35:24.523Z,7.69
2023-03-11T12:36:29.503Z,7.52
2023-03-11T12:37:31.131Z,7.30
2023-03-11T12:38:40.148Z,7.32
2023-03-11T12:39:41.833Z,7.26
2023-03-11T12:41:02.882Z,7.19
2023-03-11T12:42:21.403Z,7.14
2023-03-11T12:43:35.066Z,7.25
2023-03-11T12:44:36.963Z,7.29
2023-03-11T12:45:49.313Z,7.38
2023-03-11T12:47:00.028Z,7.35
2023-03-11T12:48:29.598Z,7.40
2023-03-11T12:49:41.636Z,7.50
2023-03-11T12:50:43.841Z,7.56
2023-03-11T12:52:06.528Z,7.53
2023-03-11T12:53:11.313Z,7.60
2023-03-11T12:54:30.883Z,7.66
2023-03-11T12:55:33.900Z,7.53
2023-03-11T12:56:43.611Z,7.52
2023-03-11T12:57:48.372Z,7.49
2023-03-11T12:59:17.907Z,7.60
2023-03-11T13:00:23.198Z,7.69
2023-03-11T13:01:29.711Z,7.52
2023-03-11T13:02:56.062Z,7.55
2023-03-11T13:04:11.379Z,7.63
2023-03-11T13:05:39.379Z,7.59
2023-03-11T13:06:57.166Z,7.58
2023-03-11T13:08:04.186Z,7.56
2023-03-11T13:09:14.697Z,7.53
2023-03-11T13:10:21.468Z,7.38
2023-03-11T13:11:31.779Z,7.49
2023-03-11T13:12:43.858Z,7.55
2023-03-11T13:13:45.614Z,7.49
2023-03-11T13:14:47.589Z,7.56
2023-03-11T13:15:49.825Z,7.60
2023-03-11T13:16:51.954Z,7.70
2023-03-11T13:18:07.804Z,7.73
2023-03-11T13:19:28.062Z,7.73
2023-03-11T13:20:41.624Z,7.69
2023-03-11T13:21:43.425Z,7.67
2023-03-11T13:23:14.162Z,7.67
2023-03-11T13:24:18.872Z,7.63
2023-03-11T13:25:29.156Z,7.49
2023-03-11T13:26:36.435Z,7.42
2023-03-11T13:27:40.304Z,7.32
2023-03-11T13:29:19.505Z,7.43
2023-03-11T13:30:22.351Z,7.43
2023-03-11T13:31:42.229Z,7.65
2023-03-11T13:33:18.473Z,7.79
2023-03-11T13:34:34.623Z,7.81
2023-03-11T13:35:55.473Z,7.91
2023-03-11T13:37:17.505Z,7.98
2023-03-11T13:38:31.508Z,8.07
2023-03-11T13:40:14.214Z,8.11
2023-03-11T13:41:25.036Z,8.04
2023-03-11T13:42:35.695Z,7.93
2023-03-11T13:43:40.226Z,7.84
2023-03-11T13:44:41.957Z,7.76
2023-03-11T13:45:57.756Z,7.71
2023-03-11T13:47:14.285Z,7.84
2023-03-11T13:48:28.992Z,7.84
2023-03-11T13:49:34.068Z,7.81
2023-03-11T13:50:57.531Z,7.81
2023-03-11T13:51:59.461Z,7.86
2023-03-11T13:53:01.402Z,7.90
2023-03-11T13:54:04.808Z,7.91
2023-03-11T13:55:09.278Z,8.05
2023-03-11T13:56:30.770Z,8.12
2023-03-11T13:57:36.893Z,8.17
2023-03-11T13:58:38.708Z,8.21
2023-03-11T13:59:40.734Z,7.95
2023-03-11T14:00:50.434Z,7.93
2023-03-11T14:01:53.106Z,7.87
2023-03-11T14:02:55.470Z,7.89
2023-03-11T14:03:57.381Z,7.89
2023-03-11T14:05:08.145Z,7.71
2023-03-11T14:06:18.767Z,7.77
2023-03-11T14:07:29.955Z,7.53
2023-03-11T14:08:36.554Z,7.48
2023-03-11T14:09:38.248Z,7.48
2023-03-11T14:10:40.214Z,7.48
2023-03-11T14:11:47.629Z,7.38
2023-03-11T14:12:49.660Z,7.38
2023-03-11T14:13:53.007Z,7.36
2023-03-11T14:15:02.363Z,7.35
2023-03-11T14:16:17.959Z,7.25
2023-03-11T14:17:20.420Z,7.20
2023-03-11T14:18:27.959Z,7.20
2023-03-11T14:19:30.241Z,7.15
2023-03-11T14:20:32.424Z,7.09
2023-03-11T14:21:35.301Z,7.07